createdAt,value
2019-01-26T00:02:26.341Z,35.08
2019-01-26T00:04:53.347Z,32.50
2019-01-26T00:07:21.317Z,34.10
2019-01-26T00:09:48.058Z,29.72
2019-01-26T00:12:15.111Z,32.38
2019-01-26T00:14:42.169Z,32.98
2019-01-26T00:17:09.203Z,34.10
2019-01-26T00:19:36.254Z,36.13
2019-01-26T00:22:03.282Z,33.00
2019-01-26T00:24:30.180Z,35.73
2019-01-26T00:26:57.075Z,32.15
2019-01-26T00:29:24.119Z,32.65
2019-01-26T00:31:51.044Z,36.85
2019-01-26T00:34:18.015Z,36.03
2019-01-26T00:36:44.860Z,34.55
2019-01-26T00:39:12.121Z,35.33
2019-01-26T00:41:38.854Z,36.40
2019-01-26T00:44:05.817Z,33.35
2019-01-26T00:46:32.644Z,34.45
2019-01-26T00:48:59.298Z,35.95
2019-01-26T00:54:37.505Z,33.63
2019-01-26T00:57:04.637Z,34.70
2019-01-26T00:59:31.658Z,37.08
2019-01-26T01:01:58.445Z,35.13
2019-01-26T01:04:25.615Z,36.73
2019-01-26T01:06:52.716Z,30.15
2019-01-26T01:09:19.044Z,34.63
2019-01-26T01:11:45.806Z,32.38
2019-01-26T01:14:12.363Z,34.43
2019-01-26T01:16:38.874Z,33.88
2019-01-26T01:19:06.247Z,35.08
2019-01-26T01:21:32.734Z,32.65
2019-01-26T01:23:59.342Z,36.77
2019-01-26T01:26:26.163Z,35.50
2019-01-26T01:28:52.730Z,33.18
2019-01-26T01:31:19.658Z,32.95
2019-01-26T01:33:46.259Z,35.43
2019-01-26T01:36:13.051Z,35.45
2019-01-26T01:38:39.735Z,32.98
2019-01-26T01:41:06.417Z,34.48
2019-01-26T01:43:33.389Z,34.95
2019-01-26T01:46:00.101Z,35.13
2019-01-26T01:48:26.866Z,34.48
2019-01-26T01:50:53.733Z,36.53
2019-01-26T01:53:21.267Z,36.05
2019-01-26T01:55:48.162Z,35.60
2019-01-26T01:58:15.081Z,35.83
2019-01-26T02:00:42.162Z,34.85
2019-01-26T02:03:09.020Z,36.15
2019-01-26T02:05:36.212Z,36.75
2019-01-26T02:08:03.412Z,38.13
2019-01-26T02:10:30.670Z,35.75
2019-01-26T02:12:57.659Z,37.90
2019-01-26T02:15:24.452Z,38.05
2019-01-26T02:17:51.598Z,36.50
2019-01-26T02:20:20.188Z,37.55
2019-01-26T02:22:47.487Z,41.23
2019-01-26T02:25:15.777Z,39.90
2019-01-26T02:27:42.651Z,37.33
2019-01-26T02:30:13.054Z,39.38
2019-01-26T02:32:40.049Z,39.88
2019-01-26T02:35:07.393Z,38.78
2019-01-26T02:37:34.249Z,39.53
2019-01-26T02:40:01.032Z,37.28
2019-01-26T02:42:29.130Z,41.10
2019-01-26T02:44:56.049Z,38.20
2019-01-26T02:47:22.883Z,38.50
2019-01-26T02:49:49.526Z,38.48
2019-01-26T02:52:16.316Z,39.85
2019-01-26T02:54:43.074Z,37.63
2019-01-26T02:57:09.739Z,38.15
2019-01-26T02:59:36.622Z,39.38
2019-01-26T03:02:03.497Z,39.90
2019-01-26T03:04:30.123Z,39.35
2019-01-26T03:06:56.670Z,40.23
2019-01-26T03:09:23.374Z,38.25
2019-01-26T03:11:50.428Z,39.10
2019-01-26T03:14:17.604Z,38.48
2019-01-26T03:16:44.347Z,37.65
2019-01-26T03:19:11.148Z,42.30
2019-01-26T03:21:38.189Z,39.85
2019-01-26T03:24:05.955Z,40.80
2019-01-26T03:26:33.320Z,40.70
2019-01-26T03:29:00.307Z,43.73
2019-01-26T03:31:27.525Z,38.08
2019-01-26T03:33:54.702Z,40.85
2019-01-26T03:36:21.620Z,40.12
2019-01-26T03:38:48.689Z,42.55
2019-01-26T03:41:15.402Z,41.15
2019-01-26T03:43:42.484Z,37.42
2019-01-26T03:46:09.400Z,43.23
2019-01-26T03:48:36.249Z,41.95
2019-01-26T03:51:03.214Z,41.40
2019-01-26T03:53:30.280Z,42.48
2019-01-26T03:55:57.173Z,39.88
2019-01-26T03:58:24.225Z,42.35
2019-01-26T04:00:51.781Z,41.40
2019-01-26T04:03:19.135Z,38.48
2019-01-26T04:05:46.172Z,43.08
2019-01-26T04:08:13.106Z,42.23
2019-01-26T04:10:40.422Z,39.30
2019-01-26T04:13:07.321Z,44.50
2019-01-26T04:15:35.325Z,41.08
2019-01-26T04:18:02.336Z,41.18
2019-01-26T04:20:29.232Z,43.08
2019-01-26T04:22:56.383Z,41.75
2019-01-26T04:25:23.174Z,41.08
2019-01-26T04:27:50.347Z,42.95
2019-01-26T04:30:19.035Z,42.98
2019-01-26T04:32:46.315Z,43.20
2019-01-26T04:35:13.449Z,44.48
2019-01-26T04:37:40.067Z,41.45
2019-01-26T04:40:13.469Z,41.00
2019-01-26T04:42:40.433Z,40.60
2019-01-26T04:45:16.586Z,40.40
2019-01-26T04:47:43.516Z,39.92
2019-01-26T04:50:12.938Z,39.38
2019-01-26T04:52:39.702Z,42.30
2019-01-26T04:55:07.342Z,40.60
2019-01-26T04:57:34.283Z,42.40
2019-01-26T05:00:01.142Z,42.15
2019-01-26T05:02:28.083Z,44.73
2019-01-26T05:04:54.917Z,40.67
2019-01-26T05:07:21.982Z,42.05
2019-01-26T05:09:49.234Z,40.92
2019-01-26T05:12:16.180Z,42.73
2019-01-26T05:14:43.418Z,43.13
2019-01-26T05:17:10.164Z,41.80
2019-01-26T05:19:37.459Z,41.58
2019-01-26T05:22:04.552Z,41.77
2019-01-26T05:24:31.815Z,40.50
2019-01-26T05:26:58.590Z,43.63
2019-01-26T05:32:37.073Z,41.55
2019-01-26T05:35:04.929Z,40.70
2019-01-26T05:37:31.665Z,42.23
2019-01-26T05:39:58.663Z,39.27
2019-01-26T05:42:25.289Z,38.88
2019-01-26T05:44:52.257Z,41.77
2019-01-26T05:47:19.065Z,41.58
2019-01-26T05:49:45.643Z,41.92
2019-01-26T05:52:12.428Z,44.48
2019-01-26T05:54:39.258Z,43.20
2019-01-26T05:57:06.335Z,41.50
2019-01-26T05:59:33.669Z,39.00
2019-01-26T06:02:00.634Z,38.63
2019-01-26T06:04:27.377Z,41.15
2019-01-26T06:06:54.311Z,40.75
2019-01-26T06:09:20.795Z,39.10
2019-01-26T06:11:48.366Z,38.28
2019-01-26T06:14:15.182Z,37.70
2019-01-26T06:16:42.247Z,41.15
2019-01-26T06:19:28.549Z,40.70
2019-01-26T06:22:01.704Z,36.80
2019-01-26T06:24:29.311Z,39.20
2019-01-26T06:26:56.154Z,37.33
2019-01-26T06:29:23.051Z,41.13
2019-01-26T06:31:50.562Z,38.95
2019-01-26T06:34:17.287Z,39.93
2019-01-26T06:36:44.710Z,39.60
2019-01-26T06:39:11.509Z,38.88
2019-01-26T06:41:38.320Z,38.33
2019-01-26T06:44:05.398Z,38.78
2019-01-26T06:46:32.269Z,40.12
2019-01-26T06:48:59.811Z,40.05
2019-01-26T06:51:26.686Z,41.28
2019-01-26T06:53:53.695Z,40.63
2019-01-26T06:56:20.575Z,40.85
2019-01-26T06:58:47.169Z,39.53
2019-01-26T07:01:14.378Z,39.45
2019-01-26T07:03:41.584Z,40.73
2019-01-26T07:06:13.346Z,43.15
2019-01-26T07:08:40.138Z,40.45
2019-01-26T07:11:07.672Z,41.28
2019-01-26T07:13:34.898Z,40.80
2019-01-26T07:16:02.159Z,41.13
2019-01-26T07:18:29.209Z,42.45
2019-01-26T07:20:58.001Z,38.85
2019-01-26T07:23:24.732Z,40.90
2019-01-26T07:25:51.954Z,40.17
2019-01-26T07:28:18.985Z,40.80
2019-01-26T07:30:46.084Z,40.13
2019-01-26T07:33:12.978Z,37.53
2019-01-26T07:35:39.550Z,39.90
2019-01-26T07:38:13.301Z,38.53
2019-01-26T07:40:35.469Z,42.30
2019-01-26T07:43:02.533Z,40.30
2019-01-26T07:45:29.021Z,45.30
2019-01-26T07:47:55.863Z,39.65
2019-01-26T07:50:25.285Z,41.20
2019-01-26T07:52:52.245Z,40.70
2019-01-26T07:55:19.327Z,41.63
2019-01-26T07:57:45.799Z,44.27
2019-01-26T08:00:18.976Z,39.90
2019-01-26T08:02:46.150Z,41.92
2019-01-26T08:05:13.337Z,41.15
2019-01-26T08:07:40.055Z,40.75
2019-01-26T08:10:12.912Z,42.75
2019-01-26T08:12:40.561Z,42.87
2019-01-26T08:15:11.820Z,41.90
2019-01-26T08:17:38.955Z,41.48
2019-01-26T08:23:33.274Z,43.95
2019-01-26T08:26:00.582Z,41.60
2019-01-26T08:28:27.563Z,42.40
2019-01-26T08:30:57.106Z,41.30
2019-01-26T08:33:27.169Z,41.65
2019-01-26T08:36:00.116Z,38.37
2019-01-26T08:38:28.898Z,41.37
2019-01-26T08:40:55.701Z,45.05
2019-01-26T08:43:22.935Z,41.33
2019-01-26T08:45:49.788Z,40.20
2019-01-26T08:48:16.727Z,42.00
2019-01-26T08:50:44.722Z,42.67
2019-01-26T08:53:11.716Z,40.37
2019-01-26T08:55:38.607Z,45.58
2019-01-26T08:58:05.646Z,43.57
2019-01-26T09:00:33.296Z,43.40
2019-01-26T09:03:02.923Z,38.87
2019-01-26T09:05:50.565Z,43.33
2019-01-26T09:08:17.624Z,42.53
2019-01-26T09:10:44.658Z,39.90
2019-01-26T09:13:11.685Z,41.77
2019-01-26T09:15:38.970Z,40.43
2019-01-26T09:18:06.350Z,38.00
2019-01-26T09:20:33.458Z,38.13
2019-01-26T09:23:00.791Z,36.50
2019-01-26T09:25:27.719Z,37.23
2019-01-26T09:27:55.420Z,35.70
2019-01-26T09:30:23.438Z,35.25
2019-01-26T09:32:51.625Z,34.80
2019-01-26T09:35:20.242Z,37.53
2019-01-26T09:37:47.984Z,37.83
2019-01-26T09:40:20.389Z,37.57
2019-01-26T09:42:48.266Z,33.30
2019-01-26T09:45:17.543Z,36.03
2019-01-26T09:47:44.998Z,34.50
2019-01-26T09:50:12.817Z,33.00
2019-01-26T09:52:40.300Z,36.40
2019-01-26T09:55:09.786Z,33.97
2019-01-26T09:57:36.527Z,34.07
2019-01-26T10:00:07.407Z,34.80
2019-01-26T10:02:34.427Z,33.33
2019-01-26T10:05:01.154Z,35.60
2019-01-26T10:07:28.247Z,32.57
2019-01-26T10:09:54.626Z,35.80
2019-01-26T10:16:03.786Z,35.20
2019-01-26T10:18:30.363Z,33.97
2019-01-26T10:24:20.550Z,34.30
2019-01-26T10:29:58.601Z,36.80
2019-01-26T10:35:59.084Z,35.97
2019-01-26T10:38:25.317Z,32.70
2019-01-26T10:40:53.496Z,36.23
2019-01-26T10:43:22.325Z,33.07
2019-01-26T10:45:49.183Z,38.03
2019-01-26T10:48:15.972Z,37.97
2019-01-26T10:50:42.259Z,37.73
2019-01-26T10:53:09.239Z,40.27
2019-01-26T10:55:35.734Z,37.77
2019-01-26T10:58:02.050Z,36.80
2019-01-26T11:00:28.446Z,37.50
2019-01-26T11:02:55.165Z,37.20
2019-01-26T11:08:56.204Z,38.93
2019-01-26T11:11:22.658Z,36.40
2019-01-26T11:13:49.231Z,36.67
2019-01-26T11:16:15.615Z,35.93
2019-01-26T11:18:42.332Z,35.60
2019-01-26T11:21:09.002Z,34.97
2019-01-26T11:23:35.424Z,34.20
2019-01-26T11:26:01.827Z,33.70
2019-01-26T11:28:28.273Z,35.23
2019-01-26T11:30:54.543Z,34.73
2019-01-26T11:33:20.946Z,32.40
2019-01-26T11:35:47.270Z,34.90
2019-01-26T11:38:13.721Z,34.27
2019-01-26T11:40:40.133Z,34.07
2019-01-26T11:43:06.839Z,32.97
2019-01-26T11:45:35.424Z,33.00
2019-01-26T11:48:03.940Z,34.77
2019-01-26T11:50:38.115Z,33.00
2019-01-26T11:53:05.217Z,33.90
2019-01-26T11:55:39.567Z,34.30
2019-01-26T11:58:06.090Z,34.57
2019-01-26T12:00:40.271Z,34.70
2019-01-26T12:06:32.479Z,35.73
2019-01-26T12:08:59.284Z,34.03
2019-01-26T12:11:27.367Z,37.07
2019-01-26T12:13:53.963Z,35.87
2019-01-26T12:19:56.578Z,37.03
2019-01-26T12:22:23.633Z,38.13
2019-01-26T12:24:50.486Z,34.53
2019-01-26T12:30:41.544Z,38.17
2019-01-26T12:33:08.157Z,34.63
2019-01-26T12:35:34.918Z,33.87
2019-01-26T12:38:02.382Z,39.83
2019-01-26T12:40:29.426Z,35.57
2019-01-26T12:42:56.129Z,29.63
2019-01-26T12:45:22.807Z,29.73
2019-01-26T12:51:00.625Z,31.30
2019-01-26T12:53:27.487Z,28.73
2019-01-26T12:59:17.378Z,27.67
2019-01-26T13:01:43.968Z,30.73
2019-01-26T13:04:10.275Z,29.47
2019-01-26T13:06:37.019Z,29.50
2019-01-26T13:09:06.269Z,31.67
2019-01-26T13:11:33.096Z,29.07
2019-01-26T13:13:59.765Z,28.10
2019-01-26T13:16:26.259Z,27.73
2019-01-26T13:18:53.449Z,26.10
2019-01-26T13:21:20.044Z,26.97
2019-01-26T13:23:46.506Z,27.60
2019-01-26T13:26:13.136Z,25.43
2019-01-26T13:28:39.778Z,25.50
2019-01-26T13:31:07.116Z,25.20
2019-01-26T13:33:33.553Z,26.10
2019-01-26T13:36:00.307Z,25.57
2019-01-26T13:38:26.750Z,25.53
2019-01-26T13:40:53.598Z,24.60
2019-01-26T13:43:20.135Z,24.00
2019-01-26T13:45:47.229Z,23.20
2019-01-26T13:48:13.938Z,25.03
2019-01-26T13:50:40.631Z,24.10
2019-01-26T13:53:08.663Z,23.20
2019-01-26T13:55:35.260Z,22.13
2019-01-26T13:58:01.581Z,23.37
2019-01-26T14:00:35.411Z,24.10
2019-01-26T14:03:01.833Z,23.57
2019-01-26T14:05:28.472Z,23.40
2019-01-26T14:07:57.003Z,23.67
2019-01-26T14:10:25.411Z,27.20
2019-01-26T14:12:51.909Z,25.73
2019-01-26T14:15:20.201Z,25.80
2019-01-26T14:17:46.897Z,25.80
2019-01-26T14:20:21.593Z,25.27
2019-01-26T14:22:48.542Z,24.67
2019-01-26T14:25:16.332Z,23.93
2019-01-26T14:27:43.192Z,22.70
2019-01-26T14:30:37.419Z,24.47
2019-01-26T14:33:04.485Z,22.47
2019-01-26T14:35:31.235Z,22.83
2019-01-26T14:37:58.160Z,21.93
2019-01-26T14:40:24.825Z,21.97
2019-01-26T14:42:54.521Z,20.00
2019-01-26T14:45:20.464Z,19.10
2019-01-26T14:47:47.525Z,19.23
2019-01-26T14:50:16.263Z,19.43
2019-01-26T14:52:44.336Z,18.53
2019-01-26T14:55:24.887Z,16.30
2019-01-26T14:57:52.689Z,18.10
2019-01-26T15:00:23.297Z,15.77
2019-01-26T15:02:51.370Z,17.77
2019-01-26T15:05:18.329Z,17.07
2019-01-26T15:07:45.623Z,14.70
2019-01-26T15:10:13.659Z,13.80
2019-01-26T15:12:40.557Z,15.70
2019-01-26T15:15:14.259Z,14.77
2019-01-26T15:20:54.180Z,15.20
2019-01-26T15:23:21.254Z,14.23
2019-01-26T15:25:48.017Z,14.97
2019-01-26T15:28:14.709Z,17.00
2019-01-26T15:30:43.318Z,16.03
2019-01-26T15:33:11.171Z,18.57
2019-01-26T15:35:38.334Z,14.90
2019-01-26T15:38:06.139Z,16.80
2019-01-26T15:40:33.024Z,15.90
2019-01-26T15:42:59.656Z,17.13
2019-01-26T15:45:35.709Z,16.50
2019-01-26T15:48:02.204Z,16.97
2019-01-26T15:50:28.914Z,17.13
2019-01-26T15:52:55.384Z,17.53
2019-01-26T15:55:25.304Z,16.93
2019-01-26T15:57:52.335Z,15.10
2019-01-26T16:00:22.300Z,15.17
2019-01-26T16:02:49.240Z,16.70
2019-01-26T16:08:50.874Z,16.77
2019-01-26T16:14:29.459Z,16.40
2019-01-26T16:16:56.986Z,17.73
2019-01-26T16:22:35.462Z,20.53
2019-01-26T16:25:02.736Z,19.13
2019-01-26T16:27:29.648Z,19.90
2019-01-26T16:29:56.363Z,22.10
2019-01-26T16:32:23.298Z,21.20
2019-01-26T16:34:50.055Z,19.90
2019-01-26T16:37:16.838Z,21.10
2019-01-26T16:39:43.577Z,21.40
2019-01-26T16:42:10.647Z,25.90
2019-01-26T16:44:37.365Z,22.83
2019-01-26T16:47:03.988Z,21.90
2019-01-26T16:49:30.828Z,22.60
2019-01-26T16:55:21.309Z,22.40
2019-01-26T16:57:47.897Z,20.60
2019-01-26T17:00:34.701Z,21.83
2019-01-26T17:03:01.369Z,22.27
2019-01-26T17:05:28.104Z,23.57
2019-01-26T17:07:54.554Z,22.73
2019-01-26T17:10:21.300Z,24.77
2019-01-26T17:16:22.987Z,21.10
2019-01-26T17:18:49.689Z,24.07
2019-01-26T17:21:16.158Z,25.13
2019-01-26T17:27:06.537Z,22.80
2019-01-26T17:29:33.215Z,19.83
2019-01-26T17:32:00.507Z,21.97
2019-01-26T17:34:30.349Z,23.30
2019-01-26T17:36:55.979Z,25.03
2019-01-26T17:39:22.606Z,21.87
2019-01-26T17:41:49.325Z,22.37
2019-01-26T17:47:27.928Z,26.47
2019-01-26T17:49:54.577Z,22.30
2019-01-26T17:52:21.935Z,21.93
2019-01-26T17:54:48.808Z,21.50
2019-01-26T17:57:15.901Z,20.00
2019-01-26T17:59:44.751Z,25.33
2019-01-26T18:02:11.504Z,21.60
2019-01-26T18:04:38.241Z,22.43
2019-01-26T18:07:05.020Z,20.63
2019-01-26T18:09:39.322Z,21.57
2019-01-26T18:15:30.725Z,19.90
2019-01-26T18:17:57.370Z,20.77
2019-01-26T18:20:28.645Z,19.33
2019-01-26T18:22:55.828Z,20.60
2019-01-26T18:28:46.588Z,19.37
2019-01-26T18:31:13.960Z,19.90
2019-01-26T18:33:40.374Z,18.50
2019-01-26T18:36:07.532Z,21.00
2019-01-26T18:38:34.985Z,21.67
2019-01-26T18:41:02.304Z,18.63
2019-01-26T18:43:29.421Z,19.67
2019-01-26T18:45:56.284Z,18.73
2019-01-26T18:48:24.753Z,19.80
2019-01-26T18:50:56.420Z,19.10
2019-01-26T18:53:23.538Z,19.97
2019-01-26T18:59:14.268Z,23.00
2019-01-26T19:01:41.314Z,30.53
2019-01-26T19:13:40.892Z,27.60
2019-01-26T19:16:09.983Z,29.87
2019-01-26T19:21:49.143Z,29.50
2019-01-26T19:24:16.279Z,25.67
2019-01-26T19:26:43.211Z,27.30
2019-01-26T19:29:10.166Z,51.97
2019-01-26T19:31:37.552Z,24.20
2019-01-26T19:34:04.649Z,20.20
2019-01-26T19:36:33.703Z,19.53
2019-01-26T19:39:00.922Z,22.40
2019-01-26T19:41:27.675Z,22.83
2019-01-26T19:43:54.414Z,26.97
2019-01-26T19:46:29.117Z,25.07
2019-01-26T19:48:56.670Z,28.70
2019-01-26T19:51:23.325Z,27.73
2019-01-26T19:53:49.944Z,21.80
2019-01-26T19:56:16.499Z,20.30
2019-01-26T19:58:43.666Z,20.70
2019-01-26T20:01:10.924Z,22.43
2019-01-26T20:03:37.650Z,27.13
2019-01-26T20:06:04.338Z,28.67
2019-01-26T20:08:31.007Z,24.90
2019-01-26T20:10:57.480Z,22.00
2019-01-26T20:13:24.021Z,19.67
2019-01-26T20:15:51.667Z,19.40
2019-01-26T20:18:20.490Z,19.27
2019-01-26T20:20:47.571Z,22.97
2019-01-26T20:23:14.353Z,26.60
2019-01-26T20:25:53.675Z,23.30
2019-01-26T20:28:27.010Z,18.17
2019-01-26T20:30:53.492Z,17.50
2019-01-26T20:36:44.483Z,15.80
2019-01-26T20:39:11.537Z,15.90
2019-01-26T20:41:38.200Z,16.00
2019-01-26T20:44:04.716Z,16.23
2019-01-26T20:46:31.254Z,14.27
2019-01-26T20:48:57.917Z,13.80
2019-01-26T20:51:24.941Z,12.03
2019-01-26T20:57:15.540Z,14.90
2019-01-26T20:59:42.939Z,13.20
2019-01-26T21:02:10.257Z,14.30
2019-01-26T21:04:37.505Z,13.53
2019-01-26T21:07:04.760Z,14.03
2019-01-26T21:09:32.590Z,14.67
2019-01-26T21:11:59.169Z,15.80
2019-01-26T21:17:49.535Z,13.10
2019-01-26T21:20:18.154Z,10.80
2019-01-26T21:22:44.919Z,12.03
2019-01-26T21:25:12.738Z,12.20
2019-01-26T21:27:39.294Z,11.77
2019-01-26T21:30:12.579Z,10.83
2019-01-26T21:32:39.438Z,11.07
2019-01-26T21:38:28.908Z,11.23
2019-01-26T21:40:55.782Z,9.80
2019-01-26T21:43:22.769Z,10.60
2019-01-26T21:45:49.845Z,11.13
2019-01-26T21:48:16.761Z,9.57
2019-01-26T21:50:43.526Z,9.67
2019-01-26T21:53:10.043Z,10.73
2019-01-26T21:55:36.451Z,8.67
2019-01-26T21:58:03.483Z,9.73
2019-01-26T22:00:30.921Z,9.50
2019-01-26T22:02:57.787Z,10.13
2019-01-26T22:05:24.889Z,10.37
2019-01-26T22:07:51.920Z,8.60
2019-01-26T22:10:21.378Z,10.50
2019-01-26T22:12:48.381Z,10.33
2019-01-26T22:15:17.369Z,10.90
2019-01-26T22:17:44.744Z,14.50
2019-01-26T22:20:20.932Z,16.50
2019-01-26T22:23:09.986Z,19.97
2019-01-26T22:25:41.408Z,20.33
2019-01-26T22:31:31.450Z,18.73
2019-01-26T22:33:58.060Z,19.70
2019-01-26T22:36:24.592Z,22.13
2019-01-26T22:42:03.368Z,18.43
2019-01-26T22:47:54.491Z,20.97
2019-01-26T22:50:25.711Z,25.50
2019-01-26T22:52:53.139Z,21.73
2019-01-26T22:55:21.193Z,22.77
2019-01-26T22:57:49.440Z,17.43
2019-01-26T23:03:46.399Z,29.87
2019-01-26T23:06:38.444Z,24.83
2019-01-26T23:12:15.266Z,30.67
2019-01-26T23:15:05.851Z,30.70
2019-01-26T23:21:21.544Z,25.00
2019-01-26T23:24:10.947Z,24.67
2019-01-26T23:26:47.506Z,22.50
2019-01-26T23:29:27.434Z,24.20
2019-01-26T23:31:54.698Z,22.27
2019-01-26T23:34:21.655Z,23.30
2019-01-26T23:36:48.616Z,17.90
2019-01-26T23:39:15.624Z,17.90
2019-01-26T23:45:17.835Z,15.37
2019-01-26T23:47:44.168Z,18.00
2019-01-26T23:50:10.578Z,17.53
2019-01-26T23:52:37.138Z,20.03
2019-01-26T23:55:06.224Z,19.10
2019-01-26T23:57:32.648Z,20.23
2019-01-26T23:59:59.215Z,18.93
